sensor_id;sensor_type;location;lat;lon;timestamp;pressure;altitude;pressure_sealevel;temperature;humidity
65131;BME280;51709;54.912;8.316;2023-03-03T00:04:36;102419.63;;;4.56;65.09
65131;BME280;51709;54.912;8.316;2023-03-03T00:09:57;102416.28;;;4.57;65.03
65131;BME280;51709;54.912;8.316;2023-03-03T00:15:20;102417.88;;;4.54;65.50
65131;BME280;51709;54.912;8.316;2023-03-03T00:20:48;102421.19;;;4.51;65.58
65131;BME280;51709;54.912;8.316;2023-03-03T00:26:31;102416.09;;;4.51;65.63
65131;BME280;51709;54.912;8.316;2023-03-03T00:31:54;102420.38;;;4.52;65.75
65131;BME280;51709;54.912;8.316;2023-03-03T00:42:52;102431.25;;;4.48;66.02
65131;BME280;51709;54.912;8.316;2023-03-03T00:48:40;102429.50;;;4.45;66.35
65131;BME280;51709;54.912;8.316;2023-03-03T00:54:01;102431.22;;;4.46;66.32
65131;BME280;51709;54.912;8.316;2023-03-03T00:59:22;102429.50;;;4.45;66.46
65131;BME280;51709;54.912;8.316;2023-03-03T01:04:50;102424.41;;;4.45;66.69
65131;BME280;51709;54.912;8.316;2023-03-03T01:10:11;102428.69;;;4.46;66.71
65131;BME280;51709;54.912;8.316;2023-03-03T01:15:32;102423.59;;;4.46;66.83
65131;BME280;51709;54.912;8.316;2023-03-03T01:20:52;102416.78;;;4.45;66.92
65131;BME280;51709;54.912;8.316;2023-03-03T01:26:13;102409.09;;;4.44;67.34
65131;BME280;51709;54.912;8.316;2023-03-03T01:31:34;102415.97;;;4.46;67.30
65131;BME280;51709;54.912;8.316;2023-03-03T01:36:54;102396.44;;;4.45;67.43
65131;BME280;51709;54.912;8.316;2023-03-03T01:42:16;102389.53;;;4.41;67.61
65131;BME280;51709;54.912;8.316;2023-03-03T01:47:37;102375.00;;;4.37;67.94
65131;BME280;51709;54.912;8.316;2023-03-03T01:53:01;102372.41;;;4.34;68.23
65131;BME280;51709;54.912;8.316;2023-03-03T01:58:27;102369.00;;;4.35;68.39
65131;BME280;51709;54.912;8.316;2023-03-03T02:03:49;102374.94;;;4.34;68.84
65131;BME280;51709;54.912;8.316;2023-03-03T02:09:17;102382.41;;;4.29;68.82
65131;BME280;51709;54.912;8.316;2023-03-03T02:14:41;102385.84;;;4.31;69.07
65131;BME280;51709;54.912;8.316;2023-03-03T02:20:06;102392.63;;;4.31;69.18
65131;BME280;51709;54.912;8.316;2023-03-03T02:30:59;102383.44;;;4.36;68.95
65131;BME280;51709;54.912;8.316;2023-03-03T02:36:24;102364.00;;;4.37;68.77
65131;BME280;51709;54.912;8.316;2023-03-03T02:42:09;102359.69;;;4.34;68.98
65131;BME280;51709;54.912;8.316;2023-03-03T02:47:48;102347.94;;;4.38;68.73
65131;BME280;51709;54.912;8.316;2023-03-03T02:53:09;102344.72;;;4.45;68.90
65131;BME280;51709;54.912;8.316;2023-03-03T02:58:29;102344.03;;;4.51;68.86
65131;BME280;51709;54.912;8.316;2023-03-03T03:03:50;102344.28;;;4.58;68.94
65131;BME280;51709;54.912;8.316;2023-03-03T03:09:14;102332.56;;;4.63;68.99
65131;BME280;51709;54.912;8.316;2023-03-03T03:14:36;102332.00;;;4.74;69.20
65131;BME280;51709;54.912;8.316;2023-03-03T03:19:58;102309.22;;;4.78;69.17
65131;BME280;51709;54.912;8.316;2023-03-03T03:25:20;102304.94;;;4.77;69.49
65131;BME280;51709;54.912;8.316;2023-03-03T03:38:38;102325.50;;;4.85;69.82
65131;BME280;51709;54.912;8.316;2023-03-03T03:44:00;102320.63;;;4.93;69.69
65131;BME280;51709;54.912;8.316;2023-03-03T03:49:21;102306.31;;;4.98;69.83
65131;BME280;51709;54.912;8.316;2023-03-03T03:54:43;102302.22;;;5.03;69.93
65131;BME280;51709;54.912;8.316;2023-03-03T04:00:05;102296.22;;;5.00;70.00
65131;BME280;51709;54.912;8.316;2023-03-03T04:05:33;102292.06;;;5.03;70.02
65131;BME280;51709;54.912;8.316;2023-03-03T04:10:54;102284.38;;;5.02;70.02
65131;BME280;51709;54.912;8.316;2023-03-03T04:16:16;102286.09;;;5.03;70.39
65131;BME280;51709;54.912;8.316;2023-03-03T04:21:37;102280.28;;;5.08;70.03
65131;BME280;51709;54.912;8.316;2023-03-03T04:26:58;102283.72;;;5.09;70.07
65131;BME280;51709;54.912;8.316;2023-03-03T04:32:19;102289.97;;;5.22;69.47
65131;BME280;51709;54.912;8.316;2023-03-03T04:37:40;102296.84;;;5.26;69.36
65131;BME280;51709;54.912;8.316;2023-03-03T04:43:02;102293.31;;;5.21;69.87
65131;BME280;51709;54.912;8.316;2023-03-03T04:48:24;102295.84;;;5.19;69.88
65131;BME280;51709;54.912;8.316;2023-03-03T04:53:44;102300.03;;;5.17;69.94
65131;BME280;51709;54.912;8.316;2023-03-03T04:59:06;102294.16;;;5.20;69.92
65131;BME280;51709;54.912;8.316;2023-03-03T05:04:26;102286.59;;;5.23;69.79
65131;BME280;51709;54.912;8.316;2023-03-03T05:09:47;102275.47;;;5.19;69.95
65131;BME280;51709;54.912;8.316;2023-03-03T05:15:08;102277.09;;;5.16;69.87
65131;BME280;51709;54.912;8.316;2023-03-03T05:20:28;102287.31;;;5.19;69.90
65131;BME280;51709;54.912;8.316;2023-03-03T05:25:50;102283.19;;;5.22;69.59
65131;BME280;51709;54.912;8.316;2023-03-03T05:31:11;102272.13;;;5.22;69.60
65131;BME280;51709;54.912;8.316;2023-03-03T05:36:31;102273.78;;;5.20;69.66
65131;BME280;51709;54.912;8.316;2023-03-03T05:41:52;102279.75;;;5.20;69.62
65131;BME280;51709;54.912;8.316;2023-03-03T05:47:13;102267.06;;;5.23;69.57
65131;BME280;51709;54.912;8.316;2023-03-03T05:52:33;102271.31;;;5.23;69.55
65131;BME280;51709;54.912;8.316;2023-03-03T05:57:54;102266.09;;;5.17;69.68
65131;BME280;51709;54.912;8.316;2023-03-03T06:03:15;102278.13;;;5.22;69.55
65131;BME280;51709;54.912;8.316;2023-03-03T06:08:36;102285.84;;;5.27;69.55
65131;BME280;51709;54.912;8.316;2023-03-03T06:13:57;102270.59;;;5.29;69.51
65131;BME280;51709;54.912;8.316;2023-03-03T06:19:17;102277.34;;;5.27;69.72
65131;BME280;51709;54.912;8.316;2023-03-03T06:24:38;102289.34;;;5.31;69.69
65131;BME280;51709;54.912;8.316;2023-03-03T06:29:58;102297.09;;;5.37;69.18
65131;BME280;51709;54.912;8.316;2023-03-03T06:35:20;102299.81;;;5.43;69.27
65131;BME280;51709;54.912;8.316;2023-03-03T06:40:40;102293.94;;;5.47;69.15
65131;BME280;51709;54.912;8.316;2023-03-03T06:46:02;102285.47;;;5.47;69.19
65131;BME280;51709;54.912;8.316;2023-03-03T06:51:24;102288.13;;;5.53;69.07
65131;BME280;51709;54.912;8.316;2023-03-03T06:56:48;102265.22;;;5.53;69.02
65131;BME280;51709;54.912;8.316;2023-03-03T07:02:15;102279.63;;;5.51;69.16
65131;BME280;51709;54.912;8.316;2023-03-03T07:07:37;102282.22;;;5.54;69.21
65131;BME280;51709;54.912;8.316;2023-03-03T07:13:16;102281.41;;;5.55;69.28
65131;BME280;51709;54.912;8.316;2023-03-03T07:24:20;102265.47;;;5.64;69.00
65131;BME280;51709;54.912;8.316;2023-03-03T07:29:46;102274.94;;;5.69;68.79
65131;BME280;51709;54.912;8.316;2023-03-03T07:40:54;102262.75;;;5.94;67.87
65131;BME280;51709;54.912;8.316;2023-03-03T07:46:22;102275.34;;;5.88;68.24
65131;BME280;51709;54.912;8.316;2023-03-03T07:51:44;102275.50;;;5.96;68.18
65131;BME280;51709;54.912;8.316;2023-03-03T08:03:02;102275.88;;;6.11;68.03
65131;BME280;51709;54.912;8.316;2023-03-03T08:08:28;102259.84;;;6.17;67.96
65131;BME280;51709;54.912;8.316;2023-03-03T08:13:50;102281.13;;;6.19;67.99
65131;BME280;51709;54.912;8.316;2023-03-03T08:19:12;102275.28;;;6.23;67.75
65131;BME280;51709;54.912;8.316;2023-03-03T08:24:36;102282.97;;;6.26;68.25
65131;BME280;51709;54.912;8.316;2023-03-03T08:29:58;102291.50;;;6.27;68.28
65131;BME280;51709;54.912;8.316;2023-03-03T08:35:18;102292.25;;;6.23;68.49
65131;BME280;51709;54.912;8.316;2023-03-03T08:40:39;102283.88;;;6.30;68.23
65131;BME280;51709;54.912;8.316;2023-03-03T08:46:01;102289.84;;;6.29;68.46
65131;BME280;51709;54.912;8.316;2023-03-03T08:51:24;102289.94;;;6.34;68.41
65131;BME280;51709;54.912;8.316;2023-03-03T08:56:46;102298.66;;;6.46;68.20
65131;BME280;51709;54.912;8.316;2023-03-03T09:02:06;102293.97;;;6.68;67.57
65131;BME280;51709;54.912;8.316;2023-03-03T09:07:27;102285.47;;;6.68;67.59
65131;BME280;51709;54.912;8.316;2023-03-03T09:12:47;102275.50;;;6.80;67.32
65131;BME280;51709;54.912;8.316;2023-03-03T09:18:20;102297.28;;;7.12;66.99
65131;BME280;51709;54.912;8.316;2023-03-03T09:23:56;102277.72;;;7.11;66.98
65131;BME280;51709;54.912;8.316;2023-03-03T09:29:23;102272.78;;;7.21;66.71
65131;BME280;51709;54.912;8.316;2023-03-03T09:34:45;102285.84;;;7.40;66.35
65131;BME280;51709;54.912;8.316;2023-03-03T09:40:48;102285.97;;;7.49;66.30
65131;BME280;51709;54.912;8.316;2023-03-03T09:46:47;102285.09;;;7.47;66.28
65131;BME280;51709;54.912;8.316;2023-03-03T10:15:03;102260.69;;;8.37;64.48
65131;BME280;51709;54.912;8.316;2023-03-03T10:32:29;102255.56;;;9.25;62.75
65131;BME280;51709;54.912;8.316;2023-03-03T10:49:50;102258.66;;;10.23;61.33
65131;BME280;51709;54.912;8.316;2023-03-03T11:00:58;102249.13;;;13.35;53.96
65131;BME280;51709;54.912;8.316;2023-03-03T11:06:28;102249.97;;;13.37;53.64
65131;BME280;51709;54.912;8.316;2023-03-03T11:34:58;102251.41;;;20.51;40.21
65131;BME280;51709;54.912;8.316;2023-03-03T11:41:00;102248.31;;;19.48;42.21
65131;BME280;51709;54.912;8.316;2023-03-03T11:46:47;102234.91;;;20.06;40.70
65131;BME280;51709;54.912;8.316;2023-03-03T11:52:24;102237.09;;;21.03;38.53
65131;BME280;51709;54.912;8.316;2023-03-03T12:21:06;102210.41;;;28.80;27.20
65131;BME280;51709;54.912;8.316;2023-03-03T12:32:30;102213.19;;;31.07;24.34
65131;BME280;51709;54.912;8.316;2023-03-03T12:38:13;102207.63;;;29.94;24.91
65131;BME280;51709;54.912;8.316;2023-03-03T12:55:47;102188.34;;;30.77;23.80
65131;BME280;51709;54.912;8.316;2023-03-03T13:17:53;102160.91;;;26.51;27.38
65131;BME280;51709;54.912;8.316;2023-03-03T13:28:58;102167.53;;;29.66;23.58
65131;BME280;51709;54.912;8.316;2023-03-03T13:34:43;102148.44;;;30.47;22.60
65131;BME280;51709;54.912;8.316;2023-03-03T13:40:16;102146.59;;;30.59;22.47
65131;BME280;51709;54.912;8.316;2023-03-03T14:02:36;102141.66;;;18.72;37.61
65131;BME280;51709;54.912;8.316;2023-03-03T14:13:34;102123.31;;;12.83;48.51
65131;BME280;51709;54.912;8.316;2023-03-03T14:19:04;102126.00;;;11.32;51.42
65131;BME280;51709;54.912;8.316;2023-03-03T14:24:30;102127.00;;;10.45;52.80
65131;BME280;51709;54.912;8.316;2023-03-03T14:29:51;102118.38;;;10.14;53.32
65131;BME280;51709;54.912;8.316;2023-03-03T14:35:18;102109.75;;;9.78;54.02
65131;BME280;51709;54.912;8.316;2023-03-03T14:40:42;102103.66;;;9.40;54.79
65131;BME280;51709;54.912;8.316;2023-03-03T14:46:21;102090.69;;;9.09;55.02
65131;BME280;51709;54.912;8.316;2023-03-03T14:51:50;102088.88;;;8.94;54.92
65131;BME280;51709;54.912;8.316;2023-03-03T15:13:32;102076.72;;;8.59;56.16
65131;BME280;51709;54.912;8.316;2023-03-03T15:24:33;102075.53;;;8.20;57.40
65131;BME280;51709;54.912;8.316;2023-03-03T15:30:14;102073.75;;;8.12;57.56
65131;BME280;51709;54.912;8.316;2023-03-03T15:41:20;102059.38;;;8.27;57.18
65131;BME280;51709;54.912;8.316;2023-03-03T15:53:25;102070.38;;;8.16;57.88
65131;BME280;51709;54.912;8.316;2023-03-03T15:58:36;102068.50;;;7.98;58.19
65131;BME280;51709;54.912;8.316;2023-03-03T16:04:10;102064.97;;;7.84;58.81
65131;BME280;51709;54.912;8.316;2023-03-03T16:09:55;102060.56;;;7.70;59.11
65131;BME280;51709;54.912;8.316;2023-03-03T16:15:50;102068.91;;;7.55;59.44
65131;BME280;51709;54.912;8.316;2023-03-03T16:27:12;102065.19;;;7.27;60.16
65131;BME280;51709;54.912;8.316;2023-03-03T16:32:43;102065.91;;;7.18;60.29
65131;BME280;51709;54.912;8.316;2023-03-03T16:38:10;102071.66;;;7.02;60.40
65131;BME280;51709;54.912;8.316;2023-03-03T16:49:14;102076.28;;;6.68;61.74
65131;BME280;51709;54.912;8.316;2023-03-03T16:54:55;102081.97;;;6.51;62.16
65131;BME280;51709;54.912;8.316;2023-03-03T17:12:01;102067.72;;;6.12;63.03
65131;BME280;51709;54.912;8.316;2023-03-03T17:17:39;102081.00;;;5.95;63.25
65131;BME280;51709;54.912;8.316;2023-03-03T17:28:41;102066.25;;;5.79;63.76
65131;BME280;51709;54.912;8.316;2023-03-03T17:34:25;102064.50;;;5.76;63.92
65131;BME280;51709;54.912;8.316;2023-03-03T17:40:00;102066.16;;;5.73;64.23
65131;BME280;51709;54.912;8.316;2023-03-03T17:45:24;102070.34;;;5.69;64.28
65131;BME280;51709;54.912;8.316;2023-03-03T17:51:11;102077.91;;;5.66;64.57
65131;BME280;51709;54.912;8.316;2023-03-03T18:24:54;102055.56;;;5.51;65.77
65131;BME280;51709;54.912;8.316;2023-03-03T18:30:57;102055.63;;;5.55;66.36
65131;BME280;51709;54.912;8.316;2023-03-03T18:42:07;102064.06;;;5.53;66.44
65131;BME280;51709;54.912;8.316;2023-03-03T18:53:26;102054.56;;;5.44;66.86
65131;BME280;51709;54.912;8.316;2023-03-03T18:58:50;102052.03;;;5.44;66.79
65131;BME280;51709;54.912;8.316;2023-03-03T19:09:45;102043.59;;;5.47;67.48
65131;BME280;51709;54.912;8.316;2023-03-03T19:42:44;102046.22;;;5.53;67.93
65131;BME280;51709;54.912;8.316;2023-03-03T19:48:39;102053.88;;;5.53;68.25
65131;BME280;51709;54.912;8.316;2023-03-03T19:54:18;102059.94;;;5.58;68.37
65131;BME280;51709;54.912;8.316;2023-03-03T19:59:52;102058.34;;;5.65;68.12
65131;BME280;51709;54.912;8.316;2023-03-03T20:10:56;102065.66;;;5.92;67.80
65131;BME280;51709;54.912;8.316;2023-03-03T20:16:39;102062.34;;;5.96;68.23
65131;BME280;51709;54.912;8.316;2023-03-03T20:22:09;102073.75;;;6.15;67.45
65131;BME280;51709;54.912;8.316;2023-03-03T20:27:41;102068.81;;;6.25;67.32
65131;BME280;51709;54.912;8.316;2023-03-03T20:39:00;102062.72;;;6.16;67.70
65131;BME280;51709;54.912;8.316;2023-03-03T20:50:06;102059.56;;;6.31;67.29
65131;BME280;51709;54.912;8.316;2023-03-03T21:01:37;102065.66;;;6.41;67.49
65131;BME280;51709;54.912;8.316;2023-03-03T21:07:03;102063.16;;;6.43;67.20
65131;BME280;51709;54.912;8.316;2023-03-03T21:12:29;102058.94;;;6.46;66.99
65131;BME280;51709;54.912;8.316;2023-03-03T21:17:50;102053.00;;;6.47;67.22
65131;BME280;51709;54.912;8.316;2023-03-03T21:23:12;102066.66;;;6.50;67.38
65131;BME280;51709;54.912;8.316;2023-03-03T21:28:34;102053.09;;;6.52;67.21
65131;BME280;51709;54.912;8.316;2023-03-03T21:33:56;102064.19;;;6.54;67.26
65131;BME280;51709;54.912;8.316;2023-03-03T21:39:32;102060.69;;;6.49;67.38
65131;BME280;51709;54.912;8.316;2023-03-03T21:44:53;102052.31;;;6.58;67.37
65131;BME280;51709;54.912;8.316;2023-03-03T21:50:16;102069.34;;;6.60;67.08
65131;BME280;51709;54.912;8.316;2023-03-03T21:55:40;102049.78;;;6.58;67.42
65131;BME280;51709;54.912;8.316;2023-03-03T22:01:14;102043.81;;;6.57;67.18
65131;BME280;51709;54.912;8.316;2023-03-03T22:06:40;102043.81;;;6.57;67.27
65131;BME280;51709;54.912;8.316;2023-03-03T22:12:05;102041.28;;;6.57;67.33
65131;BME280;51709;54.912;8.316;2023-03-03T22:17:34;102044.63;;;6.55;67.42
65131;BME280;51709;54.912;8.316;2023-03-03T22:23:04;102053.16;;;6.57;67.46
65131;BME280;51709;54.912;8.316;2023-03-03T22:42:27;102016.31;;;6.38;68.61
65131;BME280;51709;54.912;8.316;2023-03-03T22:47:48;102023.94;;;6.35;68.72
65131;BME280;51709;54.912;8.316;2023-03-03T22:53:09;102012.03;;;6.35;68.74
65131;BME280;51709;54.912;8.316;2023-03-03T22:58:30;102006.84;;;6.30;68.89
65131;BME280;51709;54.912;8.316;2023-03-03T23:03:51;101999.13;;;6.26;69.31
65131;BME280;51709;54.912;8.316;2023-03-03T23:09:12;101989.56;;;6.12;69.58
65131;BME280;51709;54.912;8.316;2023-03-03T23:14:33;101992.97;;;6.11;69.76
65131;BME280;51709;54.912;8.316;2023-03-03T23:19:53;101988.69;;;6.09;70.05
65131;BME280;51709;54.912;8.316;2023-03-03T23:25:14;101975.94;;;6.10;70.37
65131;BME280;51709;54.912;8.316;2023-03-03T23:30:35;101991.19;;;6.07;70.57
65131;BME280;51709;54.912;8.316;2023-03-03T23:35:56;101981.94;;;6.12;70.64
65131;BME280;51709;54.912;8.316;2023-03-03T23:41:17;101990.69;;;6.28;70.28
65131;BME280;51709;54.912;8.316;2023-03-03T23:46:38;101971.00;;;6.20;70.92
65131;BME280;51709;54.912;8.316;2023-03-03T23:52:00;101986.47;;;6.32;70.71
65131;BME280;51709;54.912;8.316;2023-03-03T23:57:21;101981.38;;;6.32;70.96
